Time;durP1;ratioP1;P1;durP2;ratioP2;P2;SDS_P1;SDS_P2;PMS_P1;PMS_P2;Temp;Humidity;BMP_temperature;BMP_pressure;BME280_temperature;BME280_humidity;BME280_pressure;Samples;Min_cycle;Max_cycle;Signal;HPM_P1;HPM_P2
2021/01/07 00:00:22;;;;;;;62.37;35.53;;;;;;;2.43;76.49;98181.29;2179012;81;21165;-78
2021/01/07 00:03:25;;;;;;;67.77;37.30;;;;;;;2.43;76.54;98184.28;2179005;81;21141;-81
2021/01/07 00:06:26;;;;;;;75.10;41.23;;;;;;;2.41;76.53;98179.48;2178998;81;21147;-79
2021/01/07 00:09:27;;;;;;;72.03;39.60;;;;;;;2.40;76.69;98172.17;2179033;81;21741;-78
2021/01/07 00:12:28;;;;;;;71.03;40.40;;;;;;;2.39;76.65;98170.42;2178893;81;21162;-78
2021/01/07 00:15:29;;;;;;;72.40;41.37;;;;;;;2.37;76.77;98178.52;2179037;81;21145;-80
2021/01/07 00:18:31;;;;;;;78.63;42.33;;;;;;;2.35;76.80;98171.14;2179229;81;21411;-78
2021/01/07 00:21:32;;;;;;;75.23;43.47;;;;;;;2.32;76.90;98172.75;2178779;81;21264;-79
2021/01/07 00:24:33;;;;;;;82.33;45.07;;;;;;;2.31;77.08;98166.72;2179116;81;21158;-80
2021/01/07 00:27:34;;;;;;;76.73;43.83;;;;;;;2.34;77.15;98171.09;2179021;81;21134;-79
2021/01/07 00:30:35;;;;;;;81.87;46.60;;;;;;;2.34;77.08;98168.52;2179125;81;21272;-79
2021/01/07 00:33:36;;;;;;;81.90;45.80;;;;;;;2.32;77.20;98172.75;2179131;81;21468;-81
2021/01/07 00:36:37;;;;;;;84.03;46.70;;;;;;;2.33;77.27;98179.23;2179155;81;21141;-80
2021/01/07 00:39:38;;;;;;;82.73;44.63;;;;;;;2.29;77.21;98176.09;2179068;81;21407;-79
2021/01/07 00:42:39;;;;;;;81.00;44.73;;;;;;;2.29;77.21;98176.09;2179444;81;21145;-79
2021/01/07 00:45:40;;;;;;;85.17;45.90;;;;;;;2.26;77.31;98174.70;2179597;82;21107;-80
2021/01/07 00:48:41;;;;;;;80.77;45.63;;;;;;;2.24;77.44;98173.36;2179297;81;21110;-78
2021/01/07 00:51:42;;;;;;;87.07;46.70;;;;;;;2.29;77.56;98176.09;2179275;81;21454;-78
2021/01/07 00:54:44;;;;;;;86.97;46.57;;;;;;;2.38;77.61;98173.82;2179307;81;21427;-79
2021/01/07 00:57:45;;;;;;;86.90;46.73;;;;;;;2.45;77.57;98165.47;2177940;81;21091;-79
2021/01/07 01:00:47;;;;;;;82.83;45.70;;;;;;;2.53;77.30;98169.17;2161716;82;21544;-79
2021/01/07 01:03:48;;;;;;;82.47;45.83;;;;;;;2.60;77.16;98166.79;2162101;82;21103;-79
2021/01/07 01:06:49;;;;;;;84.53;46.87;;;;;;;2.63;76.99;98168.21;2162083;82;21404;-78
2021/01/07 01:09:50;;;;;;;79.50;46.47;;;;;;;2.66;77.00;98163.16;2161833;82;21253;-78
2021/01/07 01:12:51;;;;;;;82.17;46.90;;;;;;;2.69;76.89;98164.13;2162037;82;21285;-79
2021/01/07 01:15:52;;;;;;;92.20;49.33;;;;;;;2.68;76.76;98165.37;2161865;82;21272;-79
2021/01/07 01:18:53;;;;;;;77.47;42.07;;;;;;;2.68;76.74;98159.80;2161903;82;21559;-78
2021/01/07 01:21:55;;;;;;;81.67;43.97;;;;;;;2.68;76.56;98159.80;2161960;82;21262;-78
2021/01/07 01:24:57;;;;;;;76.27;43.37;;;;;;;2.71;76.62;98165.47;2161930;82;21257;-80
2021/01/07 01:27:58;;;;;;;78.13;43.07;;;;;;;2.71;76.55;98165.47;2161847;82;21503;-78
2021/01/07 01:31:01;;;;;;;83.97;48.93;;;;;;;2.68;76.29;98162.79;2161507;82;21257;-80
2021/01/07 01:34:03;;;;;;;89.00;47.90;;;;;;;2.68;76.56;98166.24;2161887;82;21717;-78
2021/01/07 01:37:05;;;;;;;83.93;47.37;;;;;;;2.70;76.58;98168.87;2161733;82;21265;-78
2021/01/07 01:40:06;;;;;;;85.73;47.27;;;;;;;2.71;76.70;98162.47;2161602;82;21285;-78
2021/01/07 01:43:07;;;;;;;82.60;45.47;;;;;;;2.73;76.64;98165.98;2161654;82;21154;-78
2021/01/07 01:46:08;;;;;;;79.80;45.17;;;;;;;2.76;76.66;98163.91;2161839;82;21519;-78
2021/01/07 01:49:09;;;;;;;83.70;45.33;;;;;;;2.82;76.55;98162.81;2161540;82;21265;-78
2021/01/07 01:52:10;;;;;;;81.07;44.97;;;;;;;2.83;76.28;98166.72;2161477;82;21289;-79
2021/01/07 01:55:11;;;;;;;76.60;45.77;;;;;;;2.83;76.23;98167.14;2161763;82;21261;-78
2021/01/07 01:58:12;;;;;;;85.33;48.03;;;;;;;2.83;76.33;98166.72;2161610;81;21139;-77
2021/01/07 02:01:13;;;;;;;81.97;46.67;;;;;;;2.84;76.29;98164.61;2161675;82;21257;-78
2021/01/07 02:04:14;;;;;;;82.70;44.70;;;;;;;2.86;76.22;98159.09;2161772;82;21532;-78
2021/01/07 02:07:18;;;;;;;84.20;45.23;;;;;;;2.83;76.11;98152.96;2161834;82;21111;-78
2021/01/07 02:10:19;;;;;;;82.90;45.07;;;;;;;2.81;76.12;98148.17;2161416;82;21284;-79
2021/01/07 02:13:20;;;;;;;81.13;43.80;;;;;;;2.83;76.08;98156.41;2161831;82;21292;-78
2021/01/07 02:16:21;;;;;;;77.43;44.47;;;;;;;2.80;76.03;98147.30;2161650;82;21122;-78
2021/01/07 02:19:22;;;;;;;81.10;46.00;;;;;;;2.79;75.98;98139.52;2161409;82;21261;-78
2021/01/07 02:22:23;;;;;;;89.87;49.23;;;;;;;2.77;75.99;98135.61;2161498;82;21269;-77
2021/01/07 02:25:26;;;;;;;85.23;47.17;;;;;;;2.76;76.15;98127.83;2161822;82;21686;-77
2021/01/07 02:28:27;;;;;;;74.37;42.77;;;;;;;2.75;76.23;98132.11;2161401;82;21265;-77
2021/01/07 02:31:28;;;;;;;80.73;43.80;;;;;;;2.78;76.25;98131.33;2161584;82;21274;-78
2021/01/07 02:34:29;;;;;;;80.40;45.73;;;;;;;2.83;76.16;98129.77;2161694;82;21328;-78
2021/01/07 02:37:31;;;;;;;78.43;44.73;;;;;;;2.83;76.05;98130.64;2161633;82;21241;-78
2021/01/07 02:40:32;;;;;;;89.47;49.10;;;;;;;2.84;76.00;98128.52;2161418;82;21253;-78
2021/01/07 02:43:35;;;;;;;77.20;44.00;;;;;;;2.85;76.02;98129.40;2161647;82;21260;-78
2021/01/07 02:46:37;;;;;;;79.27;45.40;;;;;;;2.84;76.02;98132.80;2161639;82;21174;-78
2021/01/07 02:49:38;;;;;;;84.60;45.40;;;;;;;2.85;76.19;98136.72;2161279;82;21127;-78
2021/01/07 02:52:39;;;;;;;74.20;42.10;;;;;;;2.85;76.09;98130.69;2161969;82;21185;-78
2021/01/07 02:55:40;;;;;;;74.43;41.33;;;;;;;2.86;76.02;98135.89;2161933;82;21154;-79
2021/01/07 02:58:41;;;;;;;69.00;41.20;;;;;;;2.90;76.05;98131.70;2165155;82;21169;-78
2021/01/07 03:01:42;;;;;;;72.83;42.60;;;;;;;2.93;75.96;98136.95;2179024;81;21158;-79
2021/01/07 03:04:45;;;;;;;79.13;44.57;;;;;;;2.95;76.06;98140.45;2179077;81;21106;-79
2021/01/07 03:07:46;;;;;;;76.70;43.27;;;;;;;2.98;76.12;98135.80;2179305;81;21252;-77
2021/01/07 03:10:50;;;;;;;75.20;42.30;;;;;;;2.99;76.09;98134.55;2178860;81;21154;-80
2021/01/07 03:13:51;;;;;;;63.80;37.40;;;;;;;2.99;76.11;98136.26;2179456;81;21149;-83
2021/01/07 03:16:52;;;;;;;74.27;39.57;;;;;;;3.00;76.07;98135.02;2179016;81;21412;-79
2021/01/07 03:19:53;;;;;;;69.70;39.47;;;;;;;2.99;76.00;98140.13;2178440;81;21142;-80
2021/01/07 03:22:54;;;;;;;73.33;40.20;;;;;;;3.01;76.00;98132.02;2178949;81;21110;-79
2021/01/07 03:25:55;;;;;;;72.83;41.37;;;;;;;3.01;75.98;98131.61;2179044;81;21134;-79
2021/01/07 03:28:56;;;;;;;73.40;40.17;;;;;;;3.01;75.99;98134.19;2178682;81;21165;-79
2021/01/07 03:31:57;;;;;;;73.37;40.80;;;;;;;2.96;75.89;98137.04;2179211;82;21148;-79
2021/01/07 03:38:15;;;;;;;69.03;36.07;;;;;;;2.93;76.01;98136.95;2212310;79;22827;-78
2021/01/07 03:41:16;;;;;;;65.17;36.83;;;;;;;2.86;76.11;98139.75;2179496;82;21538;-78
2021/01/07 03:44:17;;;;;;;66.37;39.57;;;;;;;2.82;76.06;98137.03;2179271;82;21118;-78
2021/01/07 03:47:18;;;;;;;70.00;39.07;;;;;;;2.84;76.11;98140.13;2179338;82;21142;-78
2021/01/07 03:50:19;;;;;;;67.23;37.93;;;;;;;2.85;76.18;98139.30;2179247;82;21134;-78
2021/01/07 03:53:20;;;;;;;69.80;39.60;;;;;;;2.85;76.07;98135.84;2179904;82;21080;-78
2021/01/07 03:56:22;;;;;;;75.50;40.90;;;;;;;2.84;76.16;98141.83;2179254;82;21189;-79
2021/01/07 03:59:23;;;;;;;73.33;40.30;;;;;;;2.79;76.12;98136.94;2179521;82;21252;-78
2021/01/07 04:02:24;;;;;;;75.40;38.50;;;;;;;2.74;76.15;98135.51;2179405;82;21110;-79
2021/01/07 04:05:25;;;;;;;66.70;37.27;;;;;;;2.77;76.25;98138.59;2179278;82;21119;-79
2021/01/07 04:08:28;;;;;;;70.23;39.17;;;;;;;2.77;76.11;98137.31;2179468;82;21094;-79
2021/01/07 04:11:29;;;;;;;76.10;40.83;;;;;;;2.77;76.20;98138.19;2179551;82;21154;-79
2021/01/07 04:14:30;;;;;;;74.83;40.90;;;;;;;2.85;76.31;98134.55;2179497;82;21130;-79
2021/01/07 04:17:31;;;;;;;75.77;41.83;;;;;;;2.85;76.14;98122.54;2179756;82;21173;-78
2021/01/07 04:20:32;;;;;;;81.40;44.43;;;;;;;2.82;76.10;98125.02;2178681;82;21150;-78
2021/01/07 04:23:33;;;;;;;81.97;45.00;;;;;;;2.80;76.26;98125.80;2178314;82;21416;-78
2021/01/07 04:26:34;;;;;;;75.27;41.80;;;;;;;2.78;76.27;98129.62;2178301;82;21161;-78
2021/01/07 04:29:35;;;;;;;75.37;41.17;;;;;;;2.78;76.26;98123.59;2178114;82;21142;-79
2021/01/07 04:32:36;;;;;;;75.60;42.53;;;;;;;2.76;76.17;98127.41;2178101;82;21098;-78
2021/01/07 04:35:38;;;;;;;82.93;45.33;;;;;;;2.77;76.30;98121.43;2177493;81;21921;-78
2021/01/07 04:38:39;;;;;;;76.43;42.60;;;;;;;2.77;76.23;98117.56;2179345;82;21145;-78
2021/01/07 04:41:40;;;;;;;83.13;44.43;;;;;;;2.74;76.19;98121.34;2178668;81;21126;-77
2021/01/07 04:44:41;;;;;;;74.83;41.37;;;;;;;2.74;76.34;98116.59;2177904;81;21854;-77
2021/01/07 04:47:42;;;;;;;78.83;41.33;;;;;;;2.72;76.29;98123.41;2177473;81;21130;-77
2021/01/07 04:50:43;;;;;;;79.87;43.33;;;;;;;2.68;76.41;98118.98;2177235;81;21296;-78
2021/01/07 04:53:44;;;;;;;77.50;41.67;;;;;;;2.68;76.31;98118.56;2176093;81;21233;-77
2021/01/07 04:56:45;;;;;;;84.80;43.67;;;;;;;2.68;76.33;98121.56;2174490;81;21295;-77
2021/01/07 04:59:47;;;;;;;85.80;44.97;;;;;;;2.68;76.33;98119.86;2174704;81;21264;-77
2021/01/07 05:02:48;;;;;;;82.07;41.73;;;;;;;2.69;76.39;98120.73;2175096;81;21892;-77
2021/01/07 05:05:49;;;;;;;81.53;45.57;;;;;;;2.61;76.24;98119.63;2175647;81;21244;-78
2021/01/07 05:08:50;;;;;;;79.80;41.07;;;;;;;2.56;76.34;98120.73;2175802;81;21241;-77
2021/01/07 05:11:51;;;;;;;79.37;39.13;;;;;;;2.56;76.34;98121.61;2176650;81;21098;-77
2021/01/07 05:14:52;;;;;;;72.03;39.77;;;;;;;2.54;76.20;98125.84;2176192;82;21133;-78
2021/01/07 05:17:53;;;;;;;73.40;38.63;;;;;;;2.48;76.10;98124.77;2176096;81;21595;-77
2021/01/07 05:20:54;;;;;;;70.70;39.73;;;;;;;2.37;76.06;98120.56;2177001;81;21292;-77
2021/01/07 05:23:58;;;;;;;73.50;39.80;;;;;;;2.32;76.14;98125.97;2176573;81;21545;-77
2021/01/07 05:27:02;;;;;;;77.03;40.33;;;;;;;2.26;76.11;98123.20;2176500;81;21347;-78
2021/01/07 05:30:03;;;;;;;73.60;38.23;;;;;;;2.18;76.10;98129.39;2176894;82;21544;-77
2021/01/07 05:33:04;;;;;;;66.43;34.40;;;;;;;2.14;76.19;98131.40;2176303;81;21224;-76
2021/01/07 05:36:05;;;;;;;63.67;33.47;;;;;;;2.08;76.08;98129.03;2173831;81;21428;-77
2021/01/07 05:39:06;;;;;;;67.90;34.97;;;;;;;2.00;76.08;98134.33;2159137;82;21257;-77
2021/01/07 05:42:07;;;;;;;67.57;33.87;;;;;;;1.93;76.10;98136.23;2158685;82;21237;-78
2021/01/07 05:45:09;;;;;;;62.57;33.57;;;;;;;1.91;76.23;98140.92;2158729;82;21292;-78
2021/01/07 05:48:10;;;;;;;69.53;34.50;;;;;;;1.99;76.35;98141.59;2158659;82;21269;-77
2021/01/07 05:51:11;;;;;;;68.40;35.97;;;;;;;1.99;76.19;98146.33;2159272;82;21582;-77
2021/01/07 05:54:12;;;;;;;70.77;36.23;;;;;;;1.97;76.21;98143.23;2157984;82;21280;-77
2021/01/07 05:57:13;;;;;;;75.03;40.03;;;;;;;1.94;76.33;98141.84;2157928;82;21293;-78
2021/01/07 06:00:14;;;;;;;69.10;35.00;;;;;;;1.90;76.42;98146.89;2157808;82;21268;-77
2021/01/07 06:03:16;;;;;;;69.90;36.03;;;;;;;1.94;76.48;98145.70;2157370;82;21229;-77
2021/01/07 06:06:17;;;;;;;66.53;36.90;;;;;;;1.97;76.42;98141.95;2157498;82;21265;-76
2021/01/07 06:09:18;;;;;;;70.70;37.37;;;;;;;2.02;76.44;98141.70;2157928;82;21257;-78
2021/01/07 06:12:20;;;;;;;77.97;41.10;;;;;;;2.03;76.34;98148.59;2158460;82;21252;-79
2021/01/07 06:15:21;;;;;;;79.87;40.53;;;;;;;2.02;76.33;98149.42;2157574;82;21257;-77
2021/01/07 06:18:22;;;;;;;70.77;37.67;;;;;;;2.00;76.35;98153.23;2158200;82;21200;-78
2021/01/07 06:21:27;;;;;;;80.63;37.57;;;;;;;1.95;76.43;98152.19;2157966;82;21266;-77
2021/01/07 06:24:27;;;;;;;68.37;34.87;;;;;;;1.91;76.38;98149.92;2158317;81;21882;-77
2021/01/07 06:27:29;;;;;;;59.63;31.07;;;;;;;1.89;76.27;98148.13;2158448;82;21277;-77
2021/01/07 06:30:30;;;;;;;65.63;32.53;;;;;;;1.79;76.24;98157.63;2158590;82;21273;-77
2021/01/07 06:33:31;;;;;;;61.20;29.37;;;;;;;1.71;76.39;98161.19;2158443;82;21140;-77
2021/01/07 06:36:32;;;;;;;58.77;28.70;;;;;;;1.67;76.51;98156.75;2159361;81;21304;-76
2021/01/07 06:39:33;;;;;;;58.00;28.13;;;;;;;1.68;76.52;98164.06;2168224;82;21261;-78
2021/01/07 06:42:34;;;;;;;59.40;29.57;;;;;;;1.72;76.66;98167.21;2167770;82;21233;-77
2021/01/07 06:45:35;;;;;;;63.60;29.43;;;;;;;1.80;76.62;98167.98;2168231;82;21269;-77
2021/01/07 06:48:41;;;;;;;55.73;29.93;;;;;;;1.86;76.58;98169.48;2169319;82;21297;-77
2021/01/07 06:51:40;;;;;;;62.33;31.20;;;;;;;1.87;76.57;98172.52;2168611;82;21260;-77
2021/01/07 06:54:41;;;;;;;65.93;33.00;;;;;;;1.90;76.64;98172.63;2168222;82;21265;-77
2021/01/07 06:57:42;;;;;;;58.77;29.07;;;;;;;1.96;76.62;98175.82;2168499;82;21158;-77
2021/01/07 07:00:43;;;;;;;72.20;37.93;;;;;;;1.97;76.50;98175.00;2169387;82;21285;-77
2021/01/07 07:03:44;;;;;;;125.93;71.57;;;;;;;1.98;76.58;98181.02;2169353;82;21256;-78
2021/01/07 07:06:45;;;;;;;189.53;116.63;;;;;;;2.04;76.62;98194.98;2169413;82;21122;-77
2021/01/07 07:09:46;;;;;;;327.03;223.83;;;;;;;2.10;76.52;98196.89;2168998;82;21431;-78
2021/01/07 07:12:47;;;;;;;155.27;97.30;;;;;;;2.12;76.42;98197.41;2169057;82;21253;-77
2021/01/07 07:15:48;;;;;;;122.67;75.70;;;;;;;2.12;76.46;98203.84;2168225;82;21289;-77
2021/01/07 07:18:50;;;;;;;83.37;44.90;;;;;;;2.14;76.49;98206.06;2168752;82;21279;-77
2021/01/07 07:21:51;;;;;;;84.90;41.20;;;;;;;2.09;76.43;98208.89;2168615;82;21606;-77
2021/01/07 07:24:52;;;;;;;76.93;37.77;;;;;;;2.04;76.66;98217.27;2168634;82;21252;-78
2021/01/07 07:27:53;;;;;;;82.47;41.33;;;;;;;2.05;76.72;98219.03;2169484;82;21241;-79
2021/01/07 07:30:54;;;;;;;83.97;40.47;;;;;;;2.01;76.89;98217.17;2169721;82;21265;-78
2021/01/07 07:33:56;;;;;;;90.57;41.50;;;;;;;1.96;77.18;98222.56;2169227;82;21267;-77
2021/01/07 07:36:57;;;;;;;105.63;46.53;;;;;;;1.88;77.30;98226.16;2169659;81;21311;-78
2021/01/07 07:39:58;;;;;;;108.23;46.07;;;;;;;1.74;77.72;98232.50;2175508;81;22020;-78
2021/01/07 07:42:59;;;;;;;88.97;41.30;;;;;;;1.66;78.08;98237.33;2176022;81;21292;-77
2021/01/07 07:46:00;;;;;;;119.73;52.90;;;;;;;1.60;78.31;98240.55;2175273;81;21106;-78
2021/01/07 07:49:01;;;;;;;112.10;52.50;;;;;;;1.62;78.23;98238.04;2175801;81;21252;-79
2021/01/07 07:52:02;;;;;;;103.83;48.50;;;;;;;1.64;78.20;98241.95;2176391;81;21237;-78
2021/01/07 07:55:03;;;;;;;96.23;44.50;;;;;;;1.68;78.28;98248.97;2175614;81;21122;-77
2021/01/07 07:58:04;;;;;;;84.57;39.27;;;;;;;1.67;78.29;98250.66;2176365;81;21292;-78
2021/01/07 08:01:05;;;;;;;82.43;37.40;;;;;;;1.68;78.23;98254.98;2176237;81;21133;-78
2021/01/07 08:04:06;;;;;;;79.37;39.27;;;;;;;1.71;78.09;98251.66;2176064;81;21269;-77
2021/01/07 08:07:07;;;;;;;73.67;36.57;;;;;;;1.74;78.00;98263.37;2175542;81;21542;-77
2021/01/07 08:10:09;;;;;;;74.67;33.77;;;;;;;1.70;77.92;98264.92;2176212;81;21280;-77
2021/01/07 08:13:10;;;;;;;68.63;33.67;;;;;;;1.62;78.02;98267.62;2176396;81;21726;-76
2021/01/07 08:16:11;;;;;;;79.27;38.60;;;;;;;1.56;78.20;98271.25;2175539;81;21166;-78
2021/01/07 08:19:12;;;;;;;72.77;37.50;;;;;;;1.53;78.09;98272.42;2175711;81;21248;-77
2021/01/07 08:22:13;;;;;;;75.90;38.27;;;;;;;1.58;78.14;98266.63;2175984;81;21233;-77
2021/01/07 08:25:14;;;;;;;65.00;33.00;;;;;;;1.67;78.03;98274.23;2176249;81;21785;-78
2021/01/07 08:28:15;;;;;;;63.73;33.40;;;;;;;1.70;77.86;98272.64;2176149;81;21122;-78
2021/01/07 08:31:16;;;;;;;70.87;35.40;;;;;;;1.70;77.96;98277.79;2176310;82;21260;-78
2021/01/07 08:34:17;;;;;;;69.63;33.47;;;;;;;1.74;77.98;98280.10;2176259;81;21860;-78
2021/01/07 08:37:21;;;;;;;63.27;33.03;;;;;;;1.75;77.99;98280.56;2176447;81;21284;-78
2021/01/07 08:40:22;;;;;;;52.47;28.47;;;;;;;1.76;77.86;98281.03;2175838;81;21272;-77
2021/01/07 08:43:23;;;;;;;43.37;22.87;;;;;;;1.80;77.82;98285.47;2176593;82;21098;-76
2021/01/07 08:46:24;;;;;;;38.20;19.97;;;;;;;1.83;77.42;98285.18;2175959;81;21255;-76
2021/01/07 08:49:25;;;;;;;34.07;19.93;;;;;;;1.82;77.45;98286.00;2176454;81;21248;-77
2021/01/07 08:52:26;;;;;;;49.60;24.73;;;;;;;1.82;77.55;98298.87;2176507;81;21515;-77
2021/01/07 08:55:27;;;;;;;49.10;24.53;;;;;;;1.78;77.64;98294.42;2176174;81;21268;-78
2021/01/07 08:58:28;;;;;;;46.47;24.83;;;;;;;1.76;77.67;98298.64;2175488;81;21268;-77
2021/01/07 09:01:30;;;;;;;44.80;23.00;;;;;;;1.77;77.57;98302.97;2175523;81;21248;-77
2021/01/07 09:04:31;;;;;;;35.60;21.00;;;;;;;1.77;77.31;98300.80;2174609;81;21554;-77
2021/01/07 09:07:33;;;;;;;37.47;23.27;;;;;;;1.70;77.11;98303.52;2174992;81;21268;-77
2021/01/07 09:10:34;;;;;;;35.97;21.60;;;;;;;1.67;77.31;98300.83;2175404;81;21154;-77
2021/01/07 09:13:35;;;;;;;39.33;24.13;;;;;;;1.68;77.37;98302.59;2175846;81;21256;-78
2021/01/07 09:16:36;;;;;;;40.87;24.43;;;;;;;1.67;77.45;98307.27;2175337;81;21154;-78
2021/01/07 09:19:37;;;;;;;74.53;32.50;;;;;;;1.63;77.67;98304.52;2175224;81;21275;-76
2021/01/07 09:22:39;;;;;;;42.37;23.53;;;;;;;1.63;77.65;98307.97;2175346;81;21225;-78
2021/01/07 09:25:40;;;;;;;40.87;23.33;;;;;;;1.65;77.17;98306.73;2174736;81;21573;-78
2021/01/07 09:28:41;;;;;;;30.50;18.27;;;;;;;1.67;77.08;98303.41;2175492;81;21253;-78
2021/01/07 09:31:42;;;;;;;29.77;17.90;;;;;;;1.64;76.78;98308.84;2175976;81;21298;-78
2021/01/07 09:34:43;;;;;;;46.23;22.10;;;;;;;1.56;76.77;98312.41;2176199;82;21312;-78
2021/01/07 09:37:44;;;;;;;38.17;20.37;;;;;;;1.47;77.07;98305.22;2177204;81;21281;-78
2021/01/07 09:40:45;;;;;;;34.80;19.17;;;;;;;1.41;77.27;98306.27;2176484;81;21232;-78
2021/01/07 09:43:46;;;;;;;37.23;21.87;;;;;;;1.44;77.36;98307.67;2176445;81;21843;-77
2021/01/07 09:46:49;;;;;;;39.57;20.87;;;;;;;1.42;77.30;98308.43;2176113;81;21237;-78
2021/01/07 09:49:50;;;;;;;48.57;23.13;;;;;;;1.38;77.22;98306.55;2176141;82;21260;-77
2021/01/07 09:52:51;;;;;;;51.93;23.70;;;;;;;1.44;77.49;98310.65;2175976;81;21236;-77
2021/01/07 09:55:53;;;;;;;43.23;22.53;;;;;;;1.46;77.09;98310.30;2175856;81;21316;-78
2021/01/07 09:58:54;;;;;;;37.47;21.77;;;;;;;1.47;77.05;98314.63;2176678;81;21253;-78
2021/01/07 10:01:55;;;;;;;39.90;20.83;;;;;;;1.47;77.06;98312.05;2176100;82;21273;-77
2021/01/07 10:04:56;;;;;;;42.23;21.57;;;;;;;1.49;77.04;98313.87;2176147;81;21318;-78
2021/01/07 10:07:59;;;;;;;40.90;23.00;;;;;;;1.50;76.95;98310.89;2176492;81;21518;-77
2021/01/07 10:11:00;;;;;;;43.83;24.13;;;;;;;1.54;76.90;98312.35;2176058;81;21871;-77
2021/01/07 10:14:04;;;;;;;36.30;20.50;;;;;;;1.64;76.34;98308.84;2175688;81;21518;-78
2021/01/07 10:17:05;;;;;;;26.85;17.30;;;;;;;1.70;76.23;98300.95;2176606;81;21292;-77
2021/01/07 10:20:06;;;;;;;38.00;19.20;;;;;;;1.77;76.28;98305.54;2176703;81;21619;-78
2021/01/07 10:23:07;;;;;;;27.47;16.13;;;;;;;1.86;76.62;98307.17;2176771;81;21843;-78
2021/01/07 10:26:09;;;;;;;32.27;16.63;;;;;;;2.02;76.32;98302.17;2176093;81;21261;-78
2021/01/07 10:29:10;;;;;;;35.00;17.97;;;;;;;2.11;76.09;98302.91;2175600;81;21447;-78
2021/01/07 10:32:11;;;;;;;25.40;12.97;;;;;;;2.20;75.86;98296.80;2175875;81;21257;-77
2021/01/07 10:35:12;;;;;;;38.70;22.23;;;;;;;2.34;75.27;98302.45;2175652;81;21316;-77
2021/01/07 10:38:13;;;;;;;27.77;18.53;;;;;;;2.36;74.02;98296.53;2170772;81;21277;-78
2021/01/07 10:41:14;;;;;;;20.40;13.53;;;;;;;2.36;74.76;98303.38;2159263;82;21253;-78
2021/01/07 10:44:15;;;;;;;22.73;13.37;;;;;;;2.39;73.85;98304.36;2158736;82;21827;-77
2021/01/07 10:47:16;;;;;;;23.13;15.17;;;;;;;2.30;74.27;98298.89;2158325;82;21261;-77
2021/01/07 10:50:18;;;;;;;30.23;17.17;;;;;;;2.32;74.26;98298.53;2158545;82;21508;-78
2021/01/07 10:53:19;;;;;;;25.00;15.57;;;;;;;2.34;74.56;98294.31;2159100;82;21256;-78
2021/01/07 10:56:20;;;;;;;27.97;17.13;;;;;;;2.36;74.23;98297.81;2159182;82;21301;-77
2021/01/07 10:59:21;;;;;;;26.63;14.63;;;;;;;2.36;74.61;98295.65;2158481;82;21272;-78
2021/01/07 11:02:22;;;;;;;24.50;15.10;;;;;;;2.40;74.93;98295.81;2158504;82;21264;-77
2021/01/07 11:05:23;;;;;;;24.23;14.30;;;;;;;2.49;74.40;98297.42;2157123;82;21615;-78
2021/01/07 11:08:24;;;;;;;28.23;16.93;;;;;;;2.44;73.95;98291.64;2159260;82;21237;-78
2021/01/07 11:11:25;;;;;;;16.27;11.70;;;;;;;2.38;75.16;98289.73;2159347;82;21238;-78
2021/01/07 11:14:26;;;;;;;21.17;14.03;;;;;;;2.38;74.46;98291.42;2158295;82;21560;-78
2021/01/07 11:17:28;;;;;;;17.07;11.70;;;;;;;2.26;74.87;98293.16;2158463;82;21284;-78
2021/01/07 11:20:29;;;;;;;22.80;13.60;;;;;;;2.24;74.03;98284.50;2158276;82;21249;-78
2021/01/07 11:23:30;;;;;;;20.70;12.60;;;;;;;2.11;74.04;98295.19;2158155;82;21550;-77
2021/01/07 11:26:32;;;;;;;25.80;15.43;;;;;;;2.10;74.24;98286.59;2158697;82;21524;-78
2021/01/07 11:29:33;;;;;;;20.97;14.43;;;;;;;2.14;74.52;98287.58;2159528;82;21289;-77
2021/01/07 11:32:34;;;;;;;30.00;17.60;;;;;;;2.23;74.57;98283.63;2159346;82;21840;-78
2021/01/07 11:35:35;;;;;;;27.77;16.07;;;;;;;2.33;74.60;98284.83;2159703;82;21273;-78
2021/01/07 11:38:36;;;;;;;24.47;15.37;;;;;;;2.30;74.26;98279.57;2166079;81;21280;-77
2021/01/07 11:41:37;;;;;;;23.17;15.20;;;;;;;2.36;74.51;98281.08;2175708;81;21236;-77
2021/01/07 11:44:38;;;;;;;28.37;18.00;;;;;;;2.34;73.75;98281.43;2176358;82;21253;-78
2021/01/07 11:47:40;;;;;;;23.70;14.43;;;;;;;2.30;73.96;98274.83;2176539;81;21311;-77
2021/01/07 11:50:41;;;;;;;27.03;18.07;;;;;;;2.28;73.84;98282.50;2176809;81;21265;-78
2021/01/07 11:53:42;;;;;;;32.17;20.23;;;;;;;2.29;74.51;98280.80;2176099;81;21241;-78
2021/01/07 11:56:43;;;;;;;28.40;17.83;;;;;;;2.37;74.35;98278.96;2176376;81;21284;-77
2021/01/07 11:59:44;;;;;;;25.17;15.00;;;;;;;2.31;74.32;98277.87;2176473;81;21252;-78
2021/01/07 12:02:45;;;;;;;28.93;16.17;;;;;;;2.25;74.60;98277.25;2176543;81;21121;-77
2021/01/07 12:05:46;;;;;;;26.87;18.47;;;;;;;2.20;74.91;98280.95;2176547;81;21114;-78
2021/01/07 12:08:47;;;;;;;26.70;16.47;;;;;;;2.19;74.83;98282.18;2176105;81;21260;-78
2021/01/07 12:11:48;;;;;;;22.93;14.33;;;;;;;2.08;74.95;98274.48;2175580;81;21629;-78
2021/01/07 12:14:49;;;;;;;20.90;13.70;;;;;;;2.00;75.34;98269.47;2176536;81;21257;-78
2021/01/07 12:17:50;;;;;;;22.13;13.93;;;;;;;2.08;75.38;98273.20;2175862;81;21304;-77
2021/01/07 12:20:52;;;;;;;26.27;16.90;;;;;;;2.10;74.95;98276.70;2176734;81;21276;-77
2021/01/07 12:23:53;;;;;;;24.73;15.73;;;;;;;2.08;75.30;98279.22;2175088;81;21292;-78
2021/01/07 12:26:54;;;;;;;21.17;14.97;;;;;;;2.14;75.21;98279.85;2176226;81;21255;-77
2021/01/07 12:29:55;;;;;;;27.40;16.20;;;;;;;2.17;75.05;98278.67;2175551;81;21260;-76
2021/01/07 12:32:56;;;;;;;30.93;17.57;;;;;;;2.12;75.09;98279.80;2175451;81;21254;-77
2021/01/07 12:35:57;;;;;;;28.30;17.63;;;;;;;2.05;75.45;98277.83;2175608;81;21806;-77
2021/01/07 12:38:58;;;;;;;25.87;17.00;;;;;;;2.03;75.38;98277.30;2168944;81;21281;-78
2021/01/07 12:42:00;;;;;;;18.27;13.13;;;;;;;1.99;75.77;98283.16;2158883;82;21245;-78
2021/01/07 12:45:01;;;;;;;21.80;15.33;;;;;;;1.96;75.00;98280.06;2158557;82;21150;-78
2021/01/07 12:48:02;;;;;;;22.93;15.37;;;;;;;1.93;74.88;98283.81;2159355;82;21313;-77
2021/01/07 12:51:03;;;;;;;21.60;13.83;;;;;;;1.96;75.22;98286.91;2158825;82;21261;-77
2021/01/07 12:54:04;;;;;;;25.40;15.90;;;;;;;1.92;74.95;98283.35;2158387;82;21091;-78
2021/01/07 12:57:05;;;;;;;33.77;16.90;;;;;;;1.82;75.11;98291.14;2157757;82;21659;-77
2021/01/07 13:00:06;;;;;;;23.40;15.93;;;;;;;1.77;75.50;98288.81;2158743;82;21253;-77
2021/01/07 13:03:10;;;;;;;18.57;13.87;;;;;;;1.74;75.64;98292.55;2157728;82;21246;-78
2021/01/07 13:06:11;;;;;;;20.23;13.37;;;;;;;1.75;75.69;98295.59;2155995;82;21125;-77
2021/01/07 13:09:12;;;;;;;27.17;12.90;;;;;;;1.74;75.78;98300.28;2156140;82;21257;-77
2021/01/07 13:12:13;;;;;;;20.67;12.80;;;;;;;1.77;75.07;98300.39;2157127;82;21323;-78
2021/01/07 13:15:14;;;;;;;19.33;12.73;;;;;;;1.77;75.42;98300.80;2157828;82;21624;-78
2021/01/07 13:18:15;;;;;;;17.53;12.57;;;;;;;1.82;74.62;98306.59;2158313;82;21309;-78
2021/01/07 13:21:16;;;;;;;28.90;16.03;;;;;;;1.86;75.02;98313.60;2158624;82;21309;-78
2021/01/07 13:24:17;;;;;;;29.20;15.37;;;;;;;1.83;74.65;98305.77;2157844;82;21258;-78
2021/01/07 13:27:18;;;;;;;19.50;12.43;;;;;;;1.84;74.87;98311.38;2157528;82;21281;-77
2021/01/07 13:30:19;;;;;;;24.20;12.90;;;;;;;1.84;74.29;98314.36;2157858;82;21273;-77
2021/01/07 13:33:20;;;;;;;20.60;13.10;;;;;;;1.80;74.29;98313.38;2157643;82;21252;-77
2021/01/07 13:36:21;;;;;;;26.63;16.60;;;;;;;1.77;74.74;98326.13;2156686;82;21301;-77
2021/01/07 13:39:22;;;;;;;21.13;13.43;;;;;;;1.70;74.33;98322.81;2165677;81;21284;-77
2021/01/07 13:42:24;;;;;;;21.87;14.37;;;;;;;1.59;74.33;98324.11;2174880;81;21864;-78
2021/01/07 13:45:24;;;;;;;22.40;14.10;;;;;;;1.51;74.88;98330.65;2176108;81;21259;-77
2021/01/07 13:48:26;;;;;;;19.80;12.70;;;;;;;1.48;75.25;98326.67;2176462;81;21249;-77
2021/01/07 13:51:27;;;;;;;17.10;9.93;;;;;;;1.47;75.26;98328.36;2175789;81;21255;-77
2021/01/07 13:54:28;;;;;;;14.27;10.47;;;;;;;1.47;74.85;98336.48;2175850;81;21475;-78
2021/01/07 13:57:29;;;;;;;16.77;11.13;;;;;;;1.51;74.41;98337.95;2176375;82;21279;-80
2021/01/07 14:00:30;;;;;;;20.17;12.37;;;;;;;1.41;74.12;98342.67;2175891;81;21243;-77
2021/01/07 14:03:32;;;;;;;24.23;12.17;;;;;;;1.32;73.91;98343.19;2174601;82;21252;-78